TimeWET,TemperatureF,Dew PointF,Humidity,Sea Level PressureIn,VisibilityMPH,Wind Direction,Wind SpeedMPH,Gust SpeedMPH,PrecipitationIn,Events,Conditions,WindDirDegrees,DateUTC
6:00 AM,52,31,32,,9,Calm,Calm,,,,Partly Cloudy,,2014-03-20 06:00:00
6:00 AM,51.8,30.2,44,30.12,6.2,Calm,Calm,-,N/A,,Scattered Clouds,0,2014-03-20 06:00:00
7:00 AM,50.0,32.0,50,30.15,6.2,ENE,6.9,-,N/A,,Scattered Clouds,60,2014-03-20 07:00:00
8:00 AM,53.6,32.0,44,30.15,6.2,West,4.6,-,N/A,,Partly Cloudy,260,2014-03-20 08:00:00
9:00 AM,63,31,19,,9,SE,6.9,,,,Scattered Clouds,140,2014-03-20 09:00:00
9:00 AM,62.6,32.0,32,30.15,6.2,SE,6.9,-,N/A,,Partly Cloudy,140,2014-03-20 09:00:00
10:00 AM,66.2,32.0,28,30.15,6.2,East,9.2,-,N/A,,Partly Cloudy,100,2014-03-20 10:00:00
11:00 AM,68.0,28.4,23,30.15,6.2,ESE,6.9,-,N/A,,Partly Cloudy,120,2014-03-20 11:00:00
12:00 PM,70,27,11,,9,South,6.9,,,,Partly Cloudy,180,2014-03-20 12:00:00
12:00 PM,69.8,26.6,20,30.15,6.2,South,6.9,-,N/A,,Scattered Clouds,180,2014-03-20 12:00:00
1:00 PM,71.6,24.8,17,30.12,6.2,SSW,9.2,-,N/A,,Scattered Clouds,200,2014-03-20 13:00:00
2:00 PM,71.6,24.8,17,30.09,6.2,WSW,8.1,-,N/A,,Scattered Clouds,240,2014-03-20 14:00:00
3:00 PM,72,23,8,,9,WSW,9.2,,,,Partly Cloudy,240,2014-03-20 15:00:00
3:00 PM,71.6,23.0,16,30.06,6.2,WSW,9.2,-,N/A,,Scattered Clouds,240,2014-03-20 15:00:00
4:00 PM,73.4,23.0,15,30.04,6.2,SSW,4.6,-,N/A,,Scattered Clouds,200,2014-03-20 16:00:00
5:00 PM,64.4,37.4,37,30.04,6.2,NNE,35.7,-,N/A,,Partly Cloudy,20,2014-03-20 17:00:00
5:08 PM,64.4,37.4,37,30.04,6.2,NNE,34.5,51.8,N/A,,Partly Cloudy,20,2014-03-20 17:08:00
6:00 PM,63,37,27,,9,NNE,32.2,,,,Overcast,20,2014-03-20 18:00:00
6:00 PM,62.6,37.4,39,30.06,6.2,NNE,32.2,-,N/A,,Scattered Clouds,20,2014-03-20 18:00:00
9:00 PM,60,34,25,,9,NNE,25.3,,,,Partly Cloudy,20,2014-03-20 21:00:00
9:00 PM,60.8,33.8,36,30.12,6.2,NNE,25.3,-,N/A,,Scattered Clouds,20,2014-03-20 21:00:00